Time;durP1;ratioP1;P1;durP2;ratioP2;P2;SDS_P1;SDS_P2;PMS_P1;PMS_P2;Temp;Humidity;BMP_temperature;BMP_pressure;BME280_temperature;BME280_humidity;BME280_pressure;Samples;Min_cycle;Max_cycle;Signal;HPM_P1;HPM_P2
2023/08/23 00:00:03;;;;;;;4.50;2.60;;;21.00;99.90;;;;;;5022675;28;20458;-65
2023/08/23 00:02:29;;;;;;;6.60;2.70;;;21.00;99.90;;;;;;5016477;28;20858;-65
2023/08/23 00:04:55;;;;;;;4.80;2.13;;;21.00;99.90;;;;;;5015587;28;20514;-65
2023/08/23 00:07:21;;;;;;;7.50;3.17;;;21.00;99.90;;;;;;5009704;28;20273;-65
2023/08/23 00:09:46;;;;;;;4.10;2.70;;;21.00;99.90;;;;;;5008473;28;20522;-65
2023/08/23 00:12:12;;;;;;;6.33;2.70;;;20.90;99.90;;;;;;5018883;28;20525;-65
2023/08/23 00:14:38;;;;;;;5.07;3.00;;;20.90;99.90;;;;;;5008969;28;20179;-65
2023/08/23 00:17:04;;;;;;;7.97;3.87;;;20.90;99.90;;;;;;5006260;28;20186;-65
2023/08/23 00:19:30;;;;;;;8.47;3.47;;;20.90;99.90;;;;;;5013832;28;20445;-65
2023/08/23 00:21:55;;;;;;;9.23;3.20;;;20.90;99.90;;;;;;5011031;28;20369;-65
2023/08/23 00:24:21;;;;;;;6.13;3.30;;;20.80;99.90;;;;;;5016287;28;20194;-65
2023/08/23 00:26:47;;;;;;;3.70;2.33;;;20.80;99.90;;;;;;5012688;28;20187;-65
2023/08/23 00:29:12;;;;;;;15.63;3.00;;;20.70;99.90;;;;;;5010547;28;20275;-65
2023/08/23 00:31:38;;;;;;;4.67;3.07;;;20.70;99.90;;;;;;5016665;28;20647;-65
2023/08/23 00:34:03;;;;;;;4.67;2.40;;;20.60;99.90;;;;;;5008192;28;20195;-65
2023/08/23 00:36:29;;;;;;;5.70;2.50;;;20.60;99.90;;;;;;5004137;28;20237;-65
2023/08/23 00:38:55;;;;;;;5.93;3.20;;;20.50;99.90;;;;;;5005417;28;20270;-65
2023/08/23 00:41:22;;;;;;;4.70;2.43;;;20.50;99.90;;;;;;5004848;28;20190;-65
2023/08/23 00:43:47;;;;;;;4.93;3.20;;;20.50;99.90;;;;;;5003866;28;20902;-65
2023/08/23 00:46:15;;;;;;;6.73;2.97;;;20.40;99.90;;;;;;5004165;28;20440;-65
2023/08/23 00:48:41;;;;;;;11.13;3.33;;;20.40;99.90;;;;;;5005455;28;20218;-65
2023/08/23 00:51:08;;;;;;;3.50;2.10;;;20.30;99.90;;;;;;5006234;28;20433;-65
2023/08/23 00:53:34;;;;;;;5.53;2.40;;;20.30;99.90;;;;;;5011171;28;20921;-63
2023/08/23 00:56:00;;;;;;;4.60;2.80;;;20.30;99.90;;;;;;5011647;28;20922;-63
2023/08/23 00:58:26;;;;;;;5.47;2.73;;;20.30;99.90;;;;;;5010422;28;20533;-62
2023/08/23 01:00:54;;;;;;;5.43;2.40;;;20.30;99.90;;;;;;5013012;28;20221;-63
2023/08/23 01:03:20;;;;;;;4.23;2.77;;;20.30;99.90;;;;;;5008578;28;20191;-63
2023/08/23 01:06:36;;;;;;;4.00;2.43;;;20.30;99.90;;;;;;5009467;28;21216;-63
2023/08/23 01:09:24;;;;;;;5.87;2.77;;;20.30;99.90;;;;;;4966657;28;20212;-63
2023/08/23 01:12:05;;;;;;;5.20;2.63;;;20.30;99.90;;;;;;5006392;28;21005;-62
2023/08/23 01:14:59;;;;;;;6.83;3.50;;;20.20;99.90;;;;;;5007816;28;20441;-63
2023/08/23 01:17:26;;;;;;;4.00;2.53;;;20.20;99.90;;;;;;5009726;28;20437;-63
2023/08/23 01:19:53;;;;;;;5.30;2.63;;;20.20;99.90;;;;;;5017166;28;20444;-63
2023/08/23 01:22:21;;;;;;;4.00;2.57;;;20.10;99.90;;;;;;5009426;28;20520;-65
2023/08/23 01:24:48;;;;;;;6.33;3.27;;;20.20;99.90;;;;;;5007099;28;20435;-65
2023/08/23 01:27:16;;;;;;;5.93;3.27;;;20.20;99.90;;;;;;5013009;28;20586;-65
2023/08/23 01:29:44;;;;;;;4.90;2.60;;;20.20;99.90;;;;;;5005564;28;20477;-65
2023/08/23 01:32:19;;;;;;;9.33;2.73;;;20.20;99.90;;;;;;4999215;28;20441;-65
2023/08/23 01:34:51;;;;;;;6.77;2.93;;;20.20;99.90;;;;;;5007638;28;20429;-65
2023/08/23 01:37:20;;;;;;;13.00;2.80;;;20.00;99.90;;;;;;5009738;28;20902;-65
2023/08/23 01:39:46;;;;;;;3.90;2.10;;;20.10;99.90;;;;;;5018530;28;20438;-66
2023/08/23 01:42:11;;;;;;;5.60;2.43;;;20.00;99.90;;;;;;5013609;28;20449;-65
2023/08/23 01:44:41;;;;;;;7.70;2.90;;;20.00;99.90;;;;;;5016728;28;20267;-65
2023/08/23 01:47:07;;;;;;;6.70;2.80;;;20.00;99.90;;;;;;5014529;28;20507;-65
2023/08/23 01:49:32;;;;;;;3.80;2.73;;;19.90;99.90;;;;;;5013226;28;21015;-65
2023/08/23 01:51:58;;;;;;;5.27;2.77;;;19.90;99.90;;;;;;5015982;28;20260;-65
2023/08/23 01:54:23;;;;;;;5.40;3.13;;;19.90;99.90;;;;;;5012638;28;20604;-65
2023/08/23 01:56:49;;;;;;;12.13;2.77;;;19.90;99.90;;;;;;5009077;28;20194;-65
2023/08/23 01:59:14;;;;;;;6.10;2.43;;;19.80;99.90;;;;;;5008033;28;20759;-65
2023/08/23 02:01:40;;;;;;;9.37;3.30;;;19.80;99.90;;;;;;5008850;28;20209;-65
2023/08/23 02:04:06;;;;;;;5.17;3.37;;;19.80;99.90;;;;;;5015215;28;20226;-65
2023/08/23 02:06:31;;;;;;;5.67;3.07;;;19.80;99.90;;;;;;5014822;28;20210;-65
2023/08/23 02:08:57;;;;;;;4.93;2.90;;;19.80;99.90;;;;;;5006231;28;20237;-65
2023/08/23 02:11:22;;;;;;;6.60;2.77;;;19.70;99.90;;;;;;5013100;28;20187;-65
2023/08/23 02:13:48;;;;;;;5.23;2.60;;;19.70;99.90;;;;;;5004730;28;20219;-65
2023/08/23 02:16:13;;;;;;;3.53;2.27;;;19.60;99.90;;;;;;5010521;28;20246;-65
2023/08/23 02:18:39;;;;;;;11.93;2.40;;;19.70;99.90;;;;;;5007356;28;20187;-65
2023/08/23 02:21:05;;;;;;;4.17;2.83;;;19.70;99.90;;;;;;5010470;28;20404;-65
2023/08/23 02:23:30;;;;;;;6.13;2.90;;;19.70;99.90;;;;;;5009110;28;20218;-65
2023/08/23 02:25:56;;;;;;;5.80;3.20;;;19.70;99.90;;;;;;5009270;28;20179;-65
2023/08/23 02:28:21;;;;;;;6.50;2.37;;;19.70;99.90;;;;;;5009561;28;20198;-65
2023/08/23 02:30:47;;;;;;;5.33;3.07;;;19.70;99.90;;;;;;5009281;28;20190;-65
2023/08/23 02:33:13;;;;;;;6.13;2.97;;;19.70;99.90;;;;;;5007079;28;20187;-65
2023/08/23 02:35:46;;;;;;;7.20;2.30;;;19.60;99.90;;;;;;5007845;28;20583;-65
2023/08/23 02:38:13;;;;;;;5.50;3.20;;;19.60;99.90;;;;;;5003235;28;20329;-65
2023/08/23 02:40:42;;;;;;;8.43;2.90;;;19.60;99.90;;;;;;5002197;28;20441;-65
2023/08/23 02:43:08;;;;;;;4.00;2.50;;;19.60;99.90;;;;;;5002193;28;20449;-65
2023/08/23 02:45:40;;;;;;;5.00;2.57;;;19.60;99.90;;;;;;5002632;28;20446;-65
2023/08/23 02:48:10;;;;;;;7.10;3.40;;;19.40;99.90;;;;;;5003514;28;20605;-65
2023/08/23 02:50:37;;;;;;;12.43;3.70;;;19.40;99.90;;;;;;5002567;28;20450;-65
2023/08/23 02:53:02;;;;;;;4.60;3.13;;;19.40;99.90;;;;;;5002418;28;20580;-65
2023/08/23 02:55:28;;;;;;;5.30;2.30;;;19.40;99.90;;;;;;5009677;28;20962;-65
2023/08/23 02:57:54;;;;;;;5.77;2.93;;;19.40;99.90;;;;;;5012636;28;20648;-65
2023/08/23 03:00:20;;;;;;;7.00;2.53;;;19.40;99.90;;;;;;5012209;28;20214;-65
2023/08/23 03:02:45;;;;;;;6.07;3.53;;;19.40;99.90;;;;;;5005392;28;20771;-66
2023/08/23 03:05:11;;;;;;;8.37;3.67;;;19.40;99.90;;;;;;5013820;28;20214;-65
2023/08/23 03:07:36;;;;;;;6.10;2.80;;;19.30;99.90;;;;;;5006124;28;20761;-65
2023/08/23 03:10:02;;;;;;;4.23;2.60;;;19.30;99.90;;;;;;5009656;28;20655;-65
2023/08/23 03:12:28;;;;;;;8.83;3.47;;;19.40;99.90;;;;;;5007697;28;20195;-65
2023/08/23 03:14:53;;;;;;;6.40;3.07;;;19.30;99.90;;;;;;5007166;28;20190;-65
2023/08/23 03:17:19;;;;;;;4.43;2.73;;;19.30;99.90;;;;;;5005683;28;20582;-65
2023/08/23 03:19:44;;;;;;;7.07;3.63;;;19.40;99.90;;;;;;5007952;28;20548;-65
2023/08/23 03:22:10;;;;;;;8.80;3.30;;;19.30;99.90;;;;;;5012864;28;20183;-65
2023/08/23 03:24:35;;;;;;;6.07;3.40;;;19.40;99.90;;;;;;5013107;28;20192;-65
2023/08/23 03:27:01;;;;;;;9.67;3.30;;;19.30;99.90;;;;;;5006971;28;20612;-65
2023/08/23 03:29:27;;;;;;;5.80;3.33;;;19.30;99.90;;;;;;5009637;28;20214;-65
2023/08/23 03:31:52;;;;;;;6.10;3.07;;;19.30;99.90;;;;;;5008441;28;20195;-65
2023/08/23 03:34:18;;;;;;;6.23;3.40;;;19.30;99.90;;;;;;5007617;28;20278;-65
2023/08/23 03:36:44;;;;;;;6.13;3.47;;;19.20;99.90;;;;;;5013144;28;20278;-65
2023/08/23 03:39:09;;;;;;;5.43;3.27;;;19.30;99.90;;;;;;5009394;28;20187;-65
2023/08/23 03:41:35;;;;;;;6.63;3.90;;;19.30;99.90;;;;;;5010844;28;20191;-65
2023/08/23 03:44:00;;;;;;;5.10;3.00;;;19.20;99.90;;;;;;5014648;28;20195;-65
2023/08/23 03:46:26;;;;;;;4.83;3.10;;;19.20;99.90;;;;;;5015163;28;20293;-65
2023/08/23 03:48:52;;;;;;;8.70;4.33;;;19.20;99.90;;;;;;5014178;28;20215;-65
2023/08/23 03:51:17;;;;;;;9.80;3.10;;;19.20;99.90;;;;;;5011762;28;20695;-65
2023/08/23 03:53:43;;;;;;;5.33;2.80;;;19.10;99.90;;;;;;5014926;28;20241;-65
2023/08/23 03:56:09;;;;;;;6.13;3.57;;;19.10;99.90;;;;;;5013641;28;20187;-65
2023/08/23 03:58:35;;;;;;;7.90;3.10;;;19.10;99.90;;;;;;5011129;28;20206;-65
2023/08/23 04:01:01;;;;;;;14.40;3.37;;;19.10;99.90;;;;;;5009256;28;20218;-65
2023/08/23 04:03:27;;;;;;;6.33;3.20;;;19.00;99.90;;;;;;5015150;28;20430;-65
2023/08/23 04:05:52;;;;;;;5.37;3.23;;;19.00;99.90;;;;;;5019166;28;20191;-65
2023/08/23 04:08:18;;;;;;;5.83;2.83;;;19.00;99.90;;;;;;5012407;28;20211;-65
2023/08/23 04:10:50;;;;;;;5.00;2.60;;;18.90;99.90;;;;;;5012319;28;20270;-65
2023/08/23 04:13:16;;;;;;;10.97;3.53;;;18.90;99.90;;;;;;5006903;28;20644;-65
2023/08/23 04:15:43;;;;;;;6.77;2.60;;;18.90;99.90;;;;;;5008748;28;21011;-65
2023/08/23 04:18:08;;;;;;;6.07;3.13;;;18.80;99.90;;;;;;5010110;28;20805;-65
2023/08/23 04:20:34;;;;;;;6.70;3.30;;;18.80;99.90;;;;;;5007387;28;20521;-65
2023/08/23 04:23:00;;;;;;;5.57;2.50;;;18.80;99.90;;;;;;5007682;28;20183;-65
2023/08/23 04:25:25;;;;;;;5.83;3.10;;;18.80;99.90;;;;;;5005630;28;20183;-65
2023/08/23 04:27:51;;;;;;;7.10;3.40;;;18.80;99.90;;;;;;5010602;28;20207;-65
2023/08/23 04:30:17;;;;;;;9.70;3.33;;;18.70;99.90;;;;;;5008079;28;20233;-65
2023/08/23 04:32:42;;;;;;;9.03;3.20;;;18.70;99.90;;;;;;5010092;28;20191;-65
2023/08/23 04:35:08;;;;;;;5.60;3.80;;;18.70;99.90;;;;;;5009219;28;20536;-65
2023/08/23 04:37:34;;;;;;;10.23;3.20;;;18.80;99.90;;;;;;5002499;28;20206;-65
2023/08/23 04:39:59;;;;;;;12.37;3.53;;;18.80;99.90;;;;;;5004131;28;20830;-65
2023/08/23 04:42:25;;;;;;;5.87;3.47;;;18.90;99.90;;;;;;5005023;28;20233;-65
2023/08/23 04:44:51;;;;;;;8.17;3.90;;;18.90;99.90;;;;;;5004402;28;20715;-65
2023/08/23 04:47:16;;;;;;;9.00;3.47;;;18.90;99.90;;;;;;5005058;28;20188;-65
2023/08/23 04:49:43;;;;;;;7.30;3.70;;;18.80;99.90;;;;;;5005352;28;20514;-65
2023/08/23 04:52:08;;;;;;;6.13;3.57;;;18.80;99.90;;;;;;5004817;28;20183;-65
2023/08/23 04:54:34;;;;;;;3.80;2.83;;;18.80;99.90;;;;;;5008278;28;20481;-65
2023/08/23 04:56:59;;;;;;;7.50;3.57;;;18.80;99.90;;;;;;5004132;28;20183;-65
2023/08/23 04:59:25;;;;;;;7.63;3.73;;;18.90;99.90;;;;;;5004328;28;20623;-65
2023/08/23 05:01:51;;;;;;;6.03;3.60;;;18.90;99.90;;;;;;5004441;28;20217;-65
2023/08/23 05:04:18;;;;;;;4.80;2.90;;;18.90;99.90;;;;;;5003345;28;20613;-65
2023/08/23 05:06:43;;;;;;;10.83;3.70;;;18.90;99.90;;;;;;5003609;28;20221;-65
2023/08/23 05:09:09;;;;;;;9.93;4.00;;;18.90;99.90;;;;;;5001411;28;20538;-65
2023/08/23 05:11:35;;;;;;;6.30;3.17;;;19.00;99.90;;;;;;5005719;28;20674;-65
2023/08/23 05:14:00;;;;;;;5.80;3.80;;;19.00;99.90;;;;;;5004709;28;20191;-65
2023/08/23 05:16:26;;;;;;;5.90;3.00;;;19.10;99.90;;;;;;5004118;28;20266;-65
2023/08/23 05:18:52;;;;;;;11.00;3.77;;;19.10;99.90;;;;;;5009865;28;20253;-65
2023/08/23 05:21:17;;;;;;;6.60;3.63;;;19.20;99.90;;;;;;5010379;28;20222;-65
2023/08/23 05:23:43;;;;;;;10.00;3.80;;;19.20;99.90;;;;;;5010928;28;20261;-65
2023/08/23 05:26:08;;;;;;;7.63;3.63;;;19.20;99.90;;;;;;5007525;28;20187;-65
2023/08/23 05:28:34;;;;;;;5.20;3.60;;;19.20;99.90;;;;;;5008354;28;20218;-65
2023/08/23 05:31:01;;;;;;;5.30;3.23;;;19.30;99.90;;;;;;5010337;28;20183;-65
2023/08/23 05:33:26;;;;;;;6.07;3.63;;;19.30;99.90;;;;;;5003634;28;20187;-65
2023/08/23 05:35:52;;;;;;;5.83;3.47;;;19.30;99.90;;;;;;5007540;28;20488;-65
2023/08/23 05:38:20;;;;;;;8.20;3.87;;;19.30;99.90;;;;;;5004138;28;20191;-65
2023/08/23 05:40:47;;;;;;;7.57;3.30;;;19.30;99.90;;;;;;5011170;28;20632;-65
2023/08/23 05:43:13;;;;;;;7.27;4.00;;;19.30;99.90;;;;;;5011239;28;20421;-65
2023/08/23 05:45:38;;;;;;;4.50;3.37;;;19.40;99.90;;;;;;5004471;28;20919;-65
2023/08/23 05:48:04;;;;;;;6.80;3.93;;;19.50;99.90;;;;;;5008504;28;20211;-65
2023/08/23 05:50:30;;;;;;;6.37;3.80;;;19.60;99.90;;;;;;5010761;28;20628;-65
2023/08/23 05:52:56;;;;;;;3.87;2.53;;;19.60;99.90;;;;;;5010963;28;20614;-65
2023/08/23 05:55:21;;;;;;;5.57;3.33;;;19.70;99.90;;;;;;5009993;28;20190;-65
2023/08/23 05:57:47;;;;;;;5.57;3.30;;;19.70;99.90;;;;;;5005564;28;20270;-65
2023/08/23 06:00:14;;;;;;;7.27;3.90;;;19.80;99.90;;;;;;5010691;28;20231;-65
2023/08/23 06:02:40;;;;;;;6.57;3.43;;;19.90;99.90;;;;;;5010411;28;20184;-65
2023/08/23 06:05:06;;;;;;;7.40;4.07;;;19.90;99.90;;;;;;5009271;28;20438;-65
2023/08/23 06:07:32;;;;;;;11.40;4.23;;;20.00;99.90;;;;;;5000297;28;20533;-65
2023/08/23 06:09:58;;;;;;;9.23;4.20;;;20.00;99.90;;;;;;5011018;28;20429;-65
2023/08/23 06:12:27;;;;;;;6.03;3.90;;;20.10;99.90;;;;;;5010263;28;20525;-65
2023/08/23 06:14:54;;;;;;;8.27;4.20;;;20.20;99.90;;;;;;5009732;28;20581;-65
2023/08/23 06:17:20;;;;;;;4.93;3.63;;;20.30;99.90;;;;;;5010657;28;20973;-65
2023/08/23 06:19:45;;;;;;;14.30;5.20;;;20.40;99.90;;;;;;5009455;28;20557;-65
2023/08/23 06:22:11;;;;;;;12.33;4.60;;;20.50;99.90;;;;;;5009309;28;20218;-65
2023/08/23 06:24:36;;;;;;;15.40;4.10;;;20.50;99.90;;;;;;5010150;28;20326;-65
2023/08/23 06:27:02;;;;;;;7.40;4.10;;;20.60;99.90;;;;;;5006061;28;20187;-65
2023/08/23 06:29:28;;;;;;;7.53;3.13;;;20.60;99.90;;;;;;5010497;28;20221;-65
2023/08/23 06:31:54;;;;;;;7.83;4.00;;;20.70;99.90;;;;;;5007298;28;20787;-65
2023/08/23 06:34:19;;;;;;;10.63;4.53;;;20.80;99.90;;;;;;5010071;28;21001;-65
2023/08/23 06:36:45;;;;;;;4.97;3.37;;;20.90;99.90;;;;;;5008832;28;20187;-65
2023/08/23 06:39:11;;;;;;;6.97;4.03;;;21.00;99.90;;;;;;5009375;28;20183;-66
2023/08/23 06:41:40;;;;;;;6.97;4.20;;;21.10;99.90;;;;;;5010102;28;20648;-65
2023/08/23 06:44:05;;;;;;;9.07;4.37;;;21.20;99.90;;;;;;5006706;28;20244;-66
2023/08/23 06:46:31;;;;;;;5.23;3.50;;;21.30;99.90;;;;;;5007655;28;20832;-66
2023/08/23 06:48:57;;;;;;;10.77;4.50;;;21.40;99.90;;;;;;5007876;28;20217;-66
2023/08/23 06:51:23;;;;;;;5.63;3.70;;;21.60;99.90;;;;;;5008787;28;20625;-65
2023/08/23 06:53:53;;;;;;;8.53;4.03;;;21.60;99.90;;;;;;5007250;28;20186;-65
2023/08/23 06:56:19;;;;;;;5.97;3.27;;;21.70;99.90;;;;;;5009886;28;20425;-66
2023/08/23 06:58:44;;;;;;;8.40;4.70;;;21.90;99.90;;;;;;5010261;28;20453;-66
2023/08/23 07:01:14;;;;;;;5.50;4.07;;;22.10;99.90;;;;;;5009315;28;20682;-66
2023/08/23 07:03:43;;;;;;;9.47;4.10;;;22.20;99.90;;;;;;5009968;28;20222;-66
2023/08/23 07:06:14;;;;;;;7.07;3.80;;;22.30;99.90;;;;;;5010005;28;20771;-66
2023/08/23 07:08:41;;;;;;;7.13;4.20;;;22.30;99.90;;;;;;5009442;28;20472;-66
2023/08/23 07:11:07;;;;;;;8.20;5.17;;;22.50;99.90;;;;;;5002205;28;20878;-66
2023/08/23 07:13:34;;;;;;;8.57;4.50;;;22.70;99.90;;;;;;5009926;28;20438;-66
2023/08/23 07:16:00;;;;;;;7.43;3.70;;;23.00;99.90;;;;;;5009461;28;20910;-66
2023/08/23 07:18:26;;;;;;;12.63;3.83;;;23.50;99.90;;;;;;5011339;28;20504;-66
2023/08/23 07:20:51;;;;;;;8.30;3.23;;;23.70;99.90;;;;;;5014160;28;20214;-66
2023/08/23 07:23:17;;;;;;;8.53;3.57;;;24.10;99.90;;;;;;5013578;28;20185;-66
2023/08/23 07:25:44;;;;;;;6.30;3.73;;;24.40;99.90;;;;;;5013795;28;20240;-66
2023/08/23 07:28:09;;;;;;;10.37;4.37;;;24.70;99.90;;;;;;5014444;28;20198;-66
2023/08/23 07:30:35;;;;;;;9.27;3.73;;;25.30;99.90;;;;;;5013733;28;20789;-66
2023/08/23 07:33:01;;;;;;;6.50;3.57;;;25.80;99.90;;;;;;5014106;28;20182;-66
2023/08/23 07:35:26;;;;;;;6.87;3.67;;;26.50;99.90;;;;;;5013659;28;20650;-63
2023/08/23 07:37:52;;;;;;;6.20;3.63;;;27.10;99.30;;;;;;5013410;28;20569;-63
2023/08/23 07:40:17;;;;;;;6.37;3.37;;;27.50;98.40;;;;;;5013519;28;20178;-63
2023/08/23 07:42:43;;;;;;;5.90;3.50;;;27.80;98.20;;;;;;5013238;28;20213;-64
2023/08/23 07:45:09;;;;;;;7.97;3.00;;;27.50;97.60;;;;;;5013249;28;20258;-64
2023/08/23 07:47:35;;;;;;;7.90;2.80;;;27.50;97.80;;;;;;5012791;28;20194;-63
2023/08/23 07:50:02;;;;;;;4.57;3.10;;;26.90;98.40;;;;;;5013760;28;20189;-63
2023/08/23 07:52:27;;;;;;;7.73;3.50;;;26.60;99.00;;;;;;5012955;28;20195;-63
2023/08/23 07:54:53;;;;;;;5.80;3.17;;;26.60;99.30;;;;;;5013619;28;20183;-63
2023/08/23 07:57:19;;;;;;;5.47;3.37;;;26.80;99.00;;;;;;5012918;28;20185;-63
2023/08/23 07:59:44;;;;;;;5.90;3.47;;;27.30;98.40;;;;;;5013215;28;20600;-63
2023/08/23 08:02:10;;;;;;;4.73;2.73;;;27.70;97.60;;;;;;5012718;28;20186;-64
2023/08/23 08:04:35;;;;;;;4.88;3.15;;;27.90;97.40;;;;;;5013133;28;20689;-63
2023/08/23 08:07:01;;;;;;;8.18;3.28;;;28.50;96.90;;;;;;5012801;28;20187;-64
2023/08/23 08:09:27;;;;;;;5.28;2.88;;;28.90;95.90;;;;;;5013339;28;20199;-64
2023/08/23 08:11:52;;;;;;;4.55;3.03;;;29.60;94.90;;;;;;5012713;28;20209;-64
2023/08/23 08:14:18;;;;;;;5.93;3.17;;;29.70;94.20;;;;;;5012799;28;20224;-63
2023/08/23 08:16:44;;;;;;;8.27;3.40;;;29.00;94.80;;;;;;5012149;28;20185;-63
2023/08/23 08:19:09;;;;;;;8.02;3.25;;;28.60;94.80;;;;;;5013024;28;20261;-63
2023/08/23 08:21:36;;;;;;;6.03;3.28;;;28.00;96.00;;;;;;5012572;28;20646;-64
2023/08/23 08:24:02;;;;;;;6.70;2.92;;;28.10;95.50;;;;;;5012438;28;20182;-63
2023/08/23 08:26:28;;;;;;;5.40;2.60;;;27.70;95.70;;;;;;5012243;28;20533;-63
2023/08/23 08:28:54;;;;;;;30.45;3.20;;;27.40;96.40;;;;;;5012531;28;20644;-63
2023/08/23 08:31:20;;;;;;;5.38;2.67;;;26.90;97.10;;;;;;5011140;28;20262;-63
2023/08/23 08:33:46;;;;;;;7.33;3.17;;;26.50;97.90;;;;;;5012376;28;20285;-64
2023/08/23 08:36:13;;;;;;;4.80;2.70;;;26.40;97.70;;;;;;5012759;28;20186;-63
2023/08/23 08:38:38;;;;;;;5.17;3.07;;;26.50;97.40;;;;;;5012526;28;20309;-63
2023/08/23 08:41:05;;;;;;;6.20;3.00;;;26.50;96.90;;;;;;5012573;28;20187;-63
2023/08/23 08:43:31;;;;;;;3.45;2.33;;;26.90;96.60;;;;;;5011915;28;20183;-63
2023/08/23 08:45:57;;;;;;;5.82;3.15;;;27.10;95.90;;;;;;5012054;28;20198;-63
2023/08/23 08:48:23;;;;;;;9.60;2.97;;;27.20;96.60;;;;;;5012592;28;20206;-64
2023/08/23 08:50:49;;;;;;;9.40;3.30;;;27.50;96.20;;;;;;5012410;28;20179;-63
2023/08/23 08:53:17;;;;;;;2.88;1.98;;;28.10;95.50;;;;;;5011831;28;20705;-64
2023/08/23 08:55:45;;;;;;;11.65;3.15;;;27.90;95.60;;;;;;5012103;28;20188;-64
2023/08/23 08:58:15;;;;;;;5.75;3.55;;;28.00;95.80;;;;;;5012122;28;20221;-64
2023/08/23 09:00:42;;;;;;;4.78;2.60;;;28.30;94.30;;;;;;5011742;28;20213;-64
2023/08/23 09:03:09;;;;;;;4.40;2.47;;;28.20;94.70;;;;;;5011932;28;20265;-64
2023/08/23 09:05:35;;;;;;;5.10;2.80;;;28.30;95.00;;;;;;5011794;28;20233;-64
2023/08/23 09:08:01;;;;;;;9.52;3.03;;;28.20;95.40;;;;;;5011505;28;20698;-64
2023/08/23 09:10:27;;;;;;;4.82;3.30;;;28.60;95.20;;;;;;5012101;28;20221;-64
2023/08/23 09:12:53;;;;;;;5.50;3.08;;;28.90;94.10;;;;;;5011480;28;20194;-64
2023/08/23 09:15:23;;;;;;;4.78;2.92;;;28.90;94.60;;;;;;5011673;28;20185;-64
2023/08/23 09:17:52;;;;;;;5.22;3.00;;;28.40;94.80;;;;;;5011373;28;20572;-64
2023/08/23 09:20:20;;;;;;;5.65;3.28;;;28.70;94.80;;;;;;5011798;28;20179;-63
2023/08/23 09:22:51;;;;;;;3.33;2.25;;;28.90;93.70;;;;;;5011423;28;20192;-63
2023/08/23 09:25:16;;;;;;;6.45;3.60;;;28.80;94.50;;;;;;5011074;28;20174;-64
2023/08/23 09:27:42;;;;;;;7.47;3.20;;;29.00;94.10;;;;;;5011179;28;20193;-64
2023/08/23 09:30:08;;;;;;;5.78;2.72;;;29.10;93.70;;;;;;5011591;28;20179;-64
2023/08/23 09:32:34;;;;;;;4.22;2.45;;;28.70;93.10;;;;;;5011005;28;20193;-64
2023/08/23 09:35:13;;;;;;;8.65;2.53;;;28.50;93.30;;;;;;5011033;28;20286;-64
2023/08/23 09:37:43;;;;;;;3.58;2.40;;;28.60;94.10;;;;;;5011093;28;20591;-64
2023/08/23 09:40:23;;;;;;;4.80;2.60;;;29.00;93.70;;;;;;5011440;28;20229;-64
2023/08/23 09:42:53;;;;;;;3.45;2.60;;;29.20;93.40;;;;;;5010987;28;20269;-64
2023/08/23 09:45:22;;;;;;;3.72;2.22;;;29.60;93.20;;;;;;5011242;28;20210;-64
2023/08/23 09:47:55;;;;;;;4.93;2.58;;;29.80;92.50;;;;;;5010011;28;20174;-64
2023/08/23 09:50:23;;;;;;;4.35;2.28;;;30.50;90.90;;;;;;5011659;28;20183;-64
2023/08/23 09:52:56;;;;;;;4.97;2.97;;;29.60;91.80;;;;;;5010625;28;20210;-64
2023/08/23 09:55:24;;;;;;;8.98;2.78;;;29.40;91.60;;;;;;5010876;28;20258;-64
2023/08/23 09:57:52;;;;;;;3.75;1.83;;;29.80;91.80;;;;;;5010726;28;20183;-64
2023/08/23 10:00:21;;;;;;;4.35;2.50;;;30.10;91.30;;;;;;5010879;28;20198;-64
2023/08/23 10:02:46;;;;;;;6.38;2.50;;;30.20;91.30;;;;;;5010657;28;20183;-64
2023/08/23 10:05:12;;;;;;;4.53;2.63;;;30.30;90.50;;;;;;5011327;28;20229;-64
2023/08/23 10:07:41;;;;;;;3.83;2.25;;;30.00;91.20;;;;;;5010348;28;20186;-63
2023/08/23 10:10:08;;;;;;;4.10;2.78;;;29.70;92.10;;;;;;5005661;28;20191;-64
2023/08/23 10:12:38;;;;;;;4.18;2.22;;;29.50;93.40;;;;;;5010381;28;20194;-64
2023/08/23 10:15:06;;;;;;;3.65;2.38;;;29.90;92.50;;;;;;5010669;28;20179;-63
2023/08/23 10:17:33;;;;;;;5.35;2.85;;;30.10;90.60;;;;;;5010341;28;20514;-63
2023/08/23 10:20:04;;;;;;;8.30;3.40;;;29.90;91.00;;;;;;5010536;28;20703;-63
2023/08/23 10:22:29;;;;;;;6.30;3.47;;;29.60;91.40;;;;;;5010275;28;20316;-63
2023/08/23 10:24:55;;;;;;;12.32;2.78;;;29.40;91.10;;;;;;5010156;28;20273;-63
2023/08/23 10:27:24;;;;;;;11.00;3.00;;;29.20;91.40;;;;;;5010458;28;20206;-63
2023/08/23 10:29:53;;;;;;;7.65;2.50;;;29.00;93.10;;;;;;5010434;28;20671;-64
2023/08/23 10:32:19;;;;;;;4.72;2.65;;;29.00;91.10;;;;;;5010395;28;20191;-63
2023/08/23 10:34:45;;;;;;;5.15;2.45;;;29.10;90.00;;;;;;5010153;28;20324;-63
2023/08/23 10:37:20;;;;;;;5.28;2.60;;;29.20;90.80;;;;;;5010599;28;20635;-63
2023/08/23 10:39:50;;;;;;;5.68;2.58;;;29.20;90.40;;;;;;5010244;28;20185;-64
2023/08/23 10:42:20;;;;;;;3.13;2.10;;;29.10;90.10;;;;;;5009961;28;20178;-63
2023/08/23 10:44:53;;;;;;;4.57;1.92;;;28.70;91.30;;;;;;5009921;28;20205;-63
2023/08/23 10:47:19;;;;;;;8.10;2.75;;;28.50;91.60;;;;;;5009700;28;20213;-64
2023/08/23 10:49:46;;;;;;;11.60;2.88;;;28.60;91.10;;;;;;5010305;28;20663;-63
2023/08/23 10:52:12;;;;;;;4.60;2.08;;;28.80;91.00;;;;;;5007076;28;20183;-63
2023/08/23 10:54:39;;;;;;;6.75;2.53;;;28.90;90.80;;;;;;5008925;28;20230;-64
2023/08/23 10:57:05;;;;;;;6.88;2.15;;;29.00;90.40;;;;;;5009813;28;20221;-63
2023/08/23 10:59:31;;;;;;;8.30;2.50;;;29.20;91.80;;;;;;5010110;28;20240;-63
2023/08/23 11:01:56;;;;;;;7.03;2.97;;;29.40;90.10;;;;;;5009108;28;20186;-63
2023/08/23 11:04:23;;;;;;;3.15;2.17;;;29.40;91.70;;;;;;5009836;28;20218;-63
2023/08/23 11:06:49;;;;;;;4.22;1.70;;;29.40;90.70;;;;;;5009811;28;20190;-63
2023/08/23 11:09:16;;;;;;;17.05;3.25;;;29.50;90.60;;;;;;5009785;28;20682;-65
2023/08/23 11:11:42;;;;;;;4.68;2.70;;;29.40;91.40;;;;;;5009591;28;20240;-65
2023/08/23 11:14:07;;;;;;;4.35;2.63;;;29.40;91.80;;;;;;5010221;28;20191;-65
2023/08/23 11:16:33;;;;;;;7.80;2.78;;;29.60;91.50;;;;;;5009804;28;20236;-65
2023/08/23 11:19:03;;;;;;;3.78;2.47;;;29.60;91.50;;;;;;5009997;28;20209;-65
2023/08/23 11:21:30;;;;;;;5.07;2.45;;;29.90;90.50;;;;;;5009915;28;20194;-65
2023/08/23 11:23:56;;;;;;;5.95;2.97;;;29.90;90.70;;;;;;5009736;28;20194;-65
2023/08/23 11:26:21;;;;;;;3.78;2.17;;;30.00;90.40;;;;;;5009992;28;20190;-65
2023/08/23 11:28:47;;;;;;;4.65;2.70;;;30.10;90.10;;;;;;5009606;28;20206;-65
2023/08/23 11:31:13;;;;;;;6.50;2.92;;;30.00;91.20;;;;;;5009240;28;20540;-65
2023/08/23 11:33:39;;;;;;;3.15;2.40;;;30.00;90.50;;;;;;5009412;28;20178;-65
2023/08/23 11:36:05;;;;;;;6.15;3.13;;;30.00;91.40;;;;;;5009751;28;20662;-66
2023/08/23 11:38:31;;;;;;;7.22;2.70;;;30.00;90.60;;;;;;5009625;28;20201;-65
2023/08/23 11:40:57;;;;;;;6.22;2.53;;;30.00;89.50;;;;;;5009657;28;20179;-65
2023/08/23 11:43:27;;;;;;;4.80;2.53;;;29.80;89.90;;;;;;5009411;28;20225;-65
2023/08/23 11:45:53;;;;;;;4.68;2.75;;;29.80;90.10;;;;;;5009114;28;20187;-65
2023/08/23 11:48:20;;;;;;;7.18;2.95;;;29.70;90.50;;;;;;5009478;28;20620;-63
2023/08/23 11:50:46;;;;;;;4.10;2.58;;;29.60;90.70;;;;;;5009516;28;20190;-63
2023/08/23 11:53:12;;;;;;;3.88;2.15;;;29.40;91.50;;;;;;5009073;28;20182;-63
2023/08/23 11:55:40;;;;;;;6.97;2.80;;;29.40;91.20;;;;;;5009440;28;20178;-63
2023/08/23 11:58:06;;;;;;;7.72;3.13;;;29.40;90.60;;;;;;5009524;28;20237;-63
2023/08/23 12:00:33;;;;;;;4.50;2.60;;;29.60;90.50;;;;;;5008583;28;20202;-63
2023/08/23 12:02:59;;;;;;;7.43;2.35;;;29.80;90.50;;;;;;5009531;28;20298;-63
2023/08/23 12:05:24;;;;;;;5.30;2.67;;;30.00;90.70;;;;;;5011424;28;20802;-63
2023/08/23 12:07:50;;;;;;;9.88;2.58;;;29.90;90.50;;;;;;5012613;28;20190;-63
2023/08/23 12:10:16;;;;;;;3.83;2.25;;;29.90;91.00;;;;;;5013386;28;20213;-63
2023/08/23 12:12:42;;;;;;;10.07;3.33;;;30.20;90.30;;;;;;5012627;28;20636;-63
2023/08/23 12:15:08;;;;;;;3.70;2.78;;;30.00;91.20;;;;;;5012731;28;20284;-63
2023/08/23 12:17:34;;;;;;;5.25;2.40;;;30.20;91.10;;;;;;5012427;28;20175;-64
2023/08/23 12:20:00;;;;;;;3.83;2.30;;;30.50;90.20;;;;;;5012940;28;20183;-63
2023/08/23 12:22:25;;;;;;;6.80;3.28;;;30.70;88.70;;;;;;5012836;28;20615;-63
2023/08/23 12:24:51;;;;;;;7.40;2.60;;;30.60;88.60;;;;;;5012076;28;20187;-63
2023/08/23 12:27:17;;;;;;;15.20;2.35;;;30.70;88.30;;;;;;5012951;28;20521;-63
2023/08/23 12:29:43;;;;;;;9.75;2.97;;;30.70;88.00;;;;;;5012124;28;20750;-64
2023/08/23 12:32:08;;;;;;;7.32;2.47;;;30.80;89.10;;;;;;5012317;28;20241;-63
2023/08/23 12:34:34;;;;;;;6.30;2.08;;;30.70;88.30;;;;;;5012308;28;20302;-63
2023/08/23 12:37:01;;;;;;;4.97;2.78;;;30.80;87.70;;;;;;5012550;28;20194;-63
2023/08/23 12:39:27;;;;;;;5.10;2.83;;;31.00;87.30;;;;;;5012325;28;20194;-63
2023/08/23 12:41:53;;;;;;;3.65;2.60;;;31.10;87.60;;;;;;5012211;28;20658;-64